createdAt,value
2022-11-06T00:00:09.424Z,3.50
2022-11-06T00:02:59.924Z,4.10
2022-11-06T00:05:48.509Z,3.40
2022-11-06T00:08:27.816Z,3.40
2022-11-06T00:10:57.249Z,3.90
2022-11-06T00:13:26.178Z,3.80
2022-11-06T00:15:55.042Z,3.70
2022-11-06T00:18:26.968Z,3.70
2022-11-06T00:20:55.689Z,3.80
2022-11-06T00:23:24.894Z,3.70
2022-11-06T00:25:56.892Z,4.00
2022-11-06T00:28:25.695Z,4.00
2022-11-06T00:31:05.921Z,3.70
2022-11-06T00:33:35.610Z,3.50
2022-11-06T00:36:07.462Z,3.80
2022-11-06T00:38:36.789Z,3.70
2022-11-06T00:41:08.295Z,3.90
2022-11-06T00:43:37.119Z,4.10
2022-11-06T00:46:14.329Z,3.80
2022-11-06T00:48:43.417Z,3.60
2022-11-06T00:51:18.098Z,3.60
2022-11-06T00:53:47.312Z,3.10
2022-11-06T00:56:19.637Z,4.00
2022-11-06T00:58:48.910Z,3.20
2022-11-06T01:01:27.859Z,3.60
2022-11-06T01:04:12.077Z,3.50
2022-11-06T01:06:49.881Z,4.10
2022-11-06T01:09:22.783Z,3.60
2022-11-06T01:12:13.404Z,3.50
2022-11-06T01:14:44.098Z,3.70
2022-11-06T01:17:13.520Z,3.90
2022-11-06T01:19:42.391Z,4.10
2022-11-06T01:22:11.171Z,3.50
2022-11-06T01:24:40.364Z,3.50
2022-11-06T01:27:25.992Z,3.40
2022-11-06T01:29:57.199Z,3.70
2022-11-06T01:32:25.885Z,4.30
2022-11-06T01:34:54.785Z,3.70
2022-11-06T01:37:23.677Z,4.00
2022-11-06T01:39:52.571Z,3.60
2022-11-06T01:42:22.650Z,4.00
2022-11-06T01:45:25.173Z,3.40
2022-11-06T01:47:54.064Z,3.20
2022-11-06T01:50:22.953Z,3.70
2022-11-06T01:52:52.450Z,3.80
2022-11-06T01:55:35.425Z,3.60
2022-11-06T01:58:07.749Z,4.10
2022-11-06T02:00:36.639Z,3.40
2022-11-06T02:03:05.708Z,4.40
2022-11-06T02:05:34.734Z,3.70
2022-11-06T02:08:04.338Z,4.00
2022-11-06T02:10:34.456Z,4.20
2022-11-06T02:13:24.552Z,3.90
2022-11-06T02:16:23.910Z,4.30
2022-11-06T02:19:55.408Z,3.90
2022-11-06T02:22:48.467Z,3.60
2022-11-06T02:25:58.937Z,3.70
2022-11-06T02:28:51.169Z,3.70
2022-11-06T02:31:26.943Z,4.30
2022-11-06T02:34:05.302Z,3.60
2022-11-06T02:36:41.113Z,3.90
2022-11-06T02:39:14.586Z,4.20
2022-11-06T02:41:47.649Z,3.90
2022-11-06T02:47:06.259Z,4.10
2022-11-06T02:50:16.005Z,3.90
2022-11-06T02:53:01.183Z,4.40
2022-11-06T02:55:50.080Z,4.50
2022-11-06T02:58:49.412Z,4.30
2022-11-06T03:01:31.404Z,4.70
2022-11-06T03:04:11.489Z,4.00
2022-11-06T03:06:49.554Z,3.90
2022-11-06T03:09:25.919Z,3.80
2022-11-06T03:12:12.574Z,3.80
2022-11-06T03:14:52.017Z,4.40
2022-11-06T03:17:57.163Z,3.80
2022-11-06T03:20:57.593Z,4.10
2022-11-06T03:23:42.395Z,4.10
2022-11-06T03:26:25.688Z,4.40
2022-11-06T03:31:53.982Z,4.40
2022-11-06T03:34:40.947Z,4.80
2022-11-06T03:37:20.339Z,4.60
2022-11-06T03:39:54.749Z,4.20
2022-11-06T03:42:28.402Z,4.10
2022-11-06T03:45:04.001Z,4.30
2022-11-06T03:47:44.168Z,4.40
2022-11-06T03:50:39.266Z,4.50
2022-11-06T03:53:35.478Z,4.00
2022-11-06T03:56:15.067Z,4.40
2022-11-06T03:58:48.901Z,4.60
2022-11-06T04:01:25.517Z,4.10
2022-11-06T04:04:06.777Z,4.00
2022-11-06T04:06:54.849Z,4.30
2022-11-06T04:09:47.814Z,4.70
2022-11-06T04:12:41.790Z,4.40
2022-11-06T04:15:16.275Z,4.30
2022-11-06T04:17:44.987Z,4.10
2022-11-06T04:20:39.590Z,4.30
2022-11-06T04:23:41.344Z,4.40
2022-11-06T04:26:37.587Z,4.00
2022-11-06T04:29:29.817Z,4.10
2022-11-06T04:32:22.771Z,4.10
2022-11-06T04:35:10.622Z,4.50
2022-11-06T04:37:58.241Z,4.40
2022-11-06T04:40:38.840Z,4.00
2022-11-06T04:43:52.146Z,4.80
2022-11-06T04:46:33.020Z,4.20
2022-11-06T04:49:06.149Z,4.30
2022-11-06T04:54:10.881Z,3.80
2022-11-06T04:56:45.573Z,4.10
2022-11-06T04:59:17.951Z,4.00
2022-11-06T05:01:47.573Z,4.10
2022-11-06T05:04:16.663Z,4.00
2022-11-06T05:06:45.495Z,4.80
2022-11-06T05:09:14.337Z,4.50
2022-11-06T05:11:43.361Z,4.10
2022-11-06T05:14:12.115Z,4.10
2022-11-06T05:16:41.123Z,4.40
2022-11-06T05:19:09.913Z,3.60
2022-11-06T05:21:57.020Z,4.00
2022-11-06T05:24:25.930Z,4.00
2022-11-06T05:26:59.126Z,3.70
2022-11-06T05:29:28.810Z,4.10
2022-11-06T05:31:57.512Z,4.50
2022-11-06T05:34:26.291Z,3.60
2022-11-06T05:36:55.080Z,4.40
2022-11-06T05:39:24.188Z,4.30
2022-11-06T05:41:52.884Z,3.60
2022-11-06T05:44:21.638Z,3.70
2022-11-06T05:46:50.513Z,4.00
2022-11-06T05:49:19.648Z,3.90
2022-11-06T05:51:48.689Z,3.90
2022-11-06T05:54:17.284Z,4.40
2022-11-06T05:56:45.967Z,4.40
2022-11-06T05:59:15.114Z,3.70
2022-11-06T06:01:44.119Z,4.00
2022-11-06T06:04:13.202Z,4.30
2022-11-06T06:06:42.567Z,3.50
2022-11-06T06:09:11.148Z,4.00
2022-11-06T06:11:39.723Z,4.10
2022-11-06T06:14:08.389Z,4.20
2022-11-06T06:16:37.087Z,4.40
2022-11-06T06:19:05.902Z,3.80
2022-11-06T06:21:34.619Z,4.00
2022-11-06T06:24:05.441Z,4.60
2022-11-06T06:26:34.046Z,3.70
2022-11-06T06:29:03.438Z,4.30
2022-11-06T06:31:32.342Z,4.30
2022-11-06T06:34:01.083Z,3.70
2022-11-06T06:36:29.729Z,4.50
2022-11-06T06:38:58.384Z,4.10
2022-11-06T06:41:27.075Z,3.80
2022-11-06T06:43:55.779Z,4.30
2022-11-06T06:46:24.444Z,3.60
2022-11-06T06:48:53.138Z,3.80
2022-11-06T06:51:24.165Z,4.20
2022-11-06T06:53:53.095Z,3.90
2022-11-06T06:56:22.016Z,4.00
2022-11-06T06:58:55.111Z,4.10
2022-11-06T07:03:53.072Z,4.20
2022-11-06T07:06:21.847Z,4.00
2022-11-06T07:08:54.832Z,4.80
2022-11-06T07:13:52.615Z,4.70
2022-11-06T07:16:22.066Z,4.90
2022-11-06T07:18:50.672Z,4.60
2022-11-06T07:21:19.385Z,4.80
2022-11-06T07:23:48.496Z,4.50
2022-11-06T07:26:17.507Z,4.40
2022-11-06T07:28:46.142Z,4.90
2022-11-06T07:31:14.998Z,4.70
2022-11-06T07:33:43.713Z,4.70
2022-11-06T07:36:14.115Z,4.70
2022-11-06T07:38:43.993Z,4.80
2022-11-06T07:41:15.478Z,5.40
2022-11-06T07:43:44.500Z,4.90
2022-11-06T07:46:13.905Z,5.50
2022-11-06T07:48:42.543Z,7.00
2022-11-06T07:51:11.885Z,5.50
2022-11-06T07:53:41.445Z,6.10
2022-11-06T07:56:10.076Z,5.90
2022-11-06T07:58:39.248Z,5.00
2022-11-06T08:01:18.844Z,5.00
2022-11-06T08:03:47.824Z,5.20
2022-11-06T08:06:16.535Z,5.40
2022-11-06T08:08:45.148Z,4.90
2022-11-06T08:11:14.349Z,5.10
2022-11-06T08:13:44.232Z,5.00
2022-11-06T08:16:15.022Z,5.10
2022-11-06T08:18:43.914Z,5.80
2022-11-06T08:21:12.581Z,5.50
2022-11-06T08:23:41.453Z,5.10
2022-11-06T08:26:11.462Z,5.40
2022-11-06T08:28:40.098Z,5.10
2022-11-06T08:31:09.468Z,5.30
2022-11-06T08:33:39.261Z,5.20
2022-11-06T08:36:09.386Z,5.90
2022-11-06T08:38:38.330Z,5.10
2022-11-06T08:41:12.651Z,5.30
2022-11-06T08:43:41.608Z,6.30
2022-11-06T08:46:11.699Z,5.50
2022-11-06T08:48:40.340Z,5.80
2022-11-06T08:51:09.045Z,6.00
2022-11-06T08:53:37.741Z,5.50
2022-11-06T08:56:07.112Z,5.10
2022-11-06T08:58:35.740Z,4.90
2022-11-06T09:01:04.474Z,5.30
2022-11-06T09:03:33.173Z,4.90
2022-11-06T09:06:01.885Z,5.10
2022-11-06T09:08:30.491Z,5.40
2022-11-06T09:10:59.369Z,6.50
2022-11-06T09:13:28.026Z,4.90
2022-11-06T09:15:56.645Z,5.10
2022-11-06T09:18:25.209Z,5.30
2022-11-06T09:20:58.513Z,5.60
2022-11-06T09:23:27.177Z,5.10
2022-11-06T09:25:58.405Z,5.20
2022-11-06T09:28:27.047Z,6.50
2022-11-06T09:30:55.610Z,5.50
2022-11-06T09:33:24.240Z,5.70
2022-11-06T09:35:52.969Z,5.60
2022-11-06T09:38:21.844Z,6.20
2022-11-06T09:40:56.642Z,5.70
2022-11-06T09:44:06.689Z,5.20
2022-11-06T09:46:44.116Z,5.80
2022-11-06T09:49:41.712Z,6.10
2022-11-06T09:52:51.268Z,5.60
2022-11-06T09:55:29.636Z,5.20
2022-11-06T09:58:05.586Z,5.60
2022-11-06T10:00:34.333Z,5.80
2022-11-06T10:03:20.954Z,6.70
2022-11-06T10:05:53.604Z,5.80
2022-11-06T10:08:23.968Z,5.60
2022-11-06T10:10:58.827Z,5.10
2022-11-06T10:13:51.896Z,6.70
2022-11-06T10:16:36.303Z,5.40
2022-11-06T10:19:15.275Z,5.60
2022-11-06T10:21:51.681Z,5.80
2022-11-06T10:24:34.150Z,5.80
2022-11-06T10:27:11.118Z,5.70
2022-11-06T10:30:03.472Z,5.70
2022-11-06T10:32:45.256Z,6.20
2022-11-06T10:35:20.736Z,5.70
2022-11-06T10:38:07.690Z,6.00
2022-11-06T10:40:36.960Z,5.50
2022-11-06T10:43:29.859Z,5.60
2022-11-06T10:46:54.433Z,5.80
2022-11-06T10:49:35.268Z,5.60
2022-11-06T10:52:37.600Z,5.50
2022-11-06T10:55:39.851Z,5.80
2022-11-06T10:58:18.193Z,5.60
2022-11-06T11:00:47.196Z,6.00
2022-11-06T11:03:30.467Z,5.70
2022-11-06T11:05:59.257Z,6.70
2022-11-06T11:08:34.936Z,5.90
2022-11-06T11:11:18.848Z,6.40
2022-11-06T11:13:51.893Z,6.10
2022-11-06T11:16:24.690Z,6.50
2022-11-06T11:18:53.766Z,6.40
2022-11-06T11:21:27.997Z,6.30
2022-11-06T11:24:07.936Z,6.30
2022-11-06T11:26:51.371Z,6.80
2022-11-06T11:29:33.563Z,6.40
2022-11-06T11:32:06.444Z,6.80
2022-11-06T11:37:08.386Z,7.70
2022-11-06T11:39:43.958Z,7.40
2022-11-06T11:42:33.200Z,6.70
2022-11-06T11:45:10.623Z,7.20
2022-11-06T11:47:46.901Z,6.70
2022-11-06T11:50:23.274Z,7.10
2022-11-06T11:52:59.324Z,6.50
2022-11-06T11:55:30.475Z,7.00
2022-11-06T11:58:01.802Z,7.40
2022-11-06T12:00:30.970Z,6.30
2022-11-06T12:03:06.081Z,6.60
2022-11-06T12:05:40.185Z,6.10
2022-11-06T12:08:22.972Z,6.60
2022-11-06T12:10:52.074Z,6.80
2022-11-06T12:13:24.924Z,7.20
2022-11-06T12:16:01.608Z,9.40
2022-11-06T12:18:41.237Z,7.60
2022-11-06T12:21:25.524Z,7.30
2022-11-06T12:24:20.835Z,7.10
2022-11-06T12:26:57.629Z,6.90
2022-11-06T12:29:41.868Z,7.70
2022-11-06T12:33:02.533Z,7.20
2022-11-06T12:35:37.884Z,7.30
2022-11-06T12:38:22.173Z,7.50
2022-11-06T12:41:36.921Z,7.50
2022-11-06T12:44:10.582Z,7.30
2022-11-06T12:47:11.309Z,6.90
2022-11-06T12:49:55.454Z,7.30
2022-11-06T12:52:40.791Z,11.10
2022-11-06T12:55:33.766Z,7.90
2022-11-06T12:58:29.569Z,8.10
2022-11-06T13:01:40.852Z,7.90
2022-11-06T13:04:19.546Z,7.80
2022-11-06T13:07:40.613Z,8.20
2022-11-06T13:10:45.242Z,8.80
2022-11-06T13:13:43.861Z,8.70
2022-11-06T13:16:29.413Z,9.00
2022-11-06T13:19:45.136Z,9.70
2022-11-06T13:22:43.428Z,9.20
2022-11-06T13:25:44.661Z,9.90
2022-11-06T13:28:16.622Z,10.20
2022-11-06T13:30:46.198Z,10.30
2022-11-06T13:33:38.512Z,10.50
2022-11-06T13:36:07.957Z,15.10
2022-11-06T13:38:42.213Z,10.40
2022-11-06T13:41:44.034Z,10.50
2022-11-06T13:44:16.413Z,10.90
2022-11-06T13:47:27.870Z,10.10
2022-11-06T13:50:34.643Z,9.90
2022-11-06T13:53:21.292Z,10.50
2022-11-06T13:56:22.021Z,9.90
2022-11-06T13:59:41.566Z,9.00
2022-11-06T14:03:02.703Z,9.80
2022-11-06T14:05:54.644Z,9.70
2022-11-06T14:09:01.923Z,10.10
2022-11-06T14:11:35.307Z,10.90
2022-11-06T14:14:25.023Z,10.10
2022-11-06T14:17:22.326Z,10.70
2022-11-06T14:19:51.327Z,10.20
2022-11-06T14:22:28.382Z,10.90
2022-11-06T14:25:01.652Z,11.00
2022-11-06T14:27:30.989Z,10.10
2022-11-06T14:30:16.684Z,11.50
2022-11-06T14:32:48.224Z,10.50
2022-11-06T14:35:28.629Z,10.60
2022-11-06T14:38:32.565Z,10.30
2022-11-06T14:41:02.298Z,10.20
2022-11-06T14:43:36.999Z,10.60
2022-11-06T14:46:22.325Z,11.80
2022-11-06T14:48:55.882Z,11.30
2022-11-06T14:51:30.281Z,10.50
2022-11-06T14:54:04.070Z,10.30
2022-11-06T14:56:39.479Z,10.10
2022-11-06T14:59:20.939Z,10.70
2022-11-06T15:02:28.973Z,10.00
2022-11-06T15:05:05.799Z,10.20
2022-11-06T15:10:44.416Z,9.80
2022-11-06T15:13:25.887Z,10.50
2022-11-06T15:16:04.189Z,11.20
2022-11-06T15:18:36.690Z,10.80
2022-11-06T15:21:10.857Z,9.60
2022-11-06T15:23:52.951Z,11.10
2022-11-06T15:26:29.679Z,10.40
2022-11-06T15:29:22.807Z,10.40
2022-11-06T15:32:01.121Z,10.40
2022-11-06T15:34:43.831Z,10.40
2022-11-06T15:37:23.839Z,10.10
2022-11-06T15:40:00.248Z,10.40
2022-11-06T15:42:39.666Z,10.10
2022-11-06T15:45:27.427Z,11.40
2022-11-06T15:48:02.582Z,11.30
2022-11-06T15:50:33.484Z,16.70
2022-11-06T15:53:14.846Z,15.50
2022-11-06T15:55:48.899Z,14.00
2022-11-06T15:58:17.419Z,12.20
2022-11-06T16:00:46.846Z,11.90
2022-11-06T16:03:20.487Z,10.50
2022-11-06T16:05:50.449Z,11.30
2022-11-06T16:08:21.124Z,9.70
2022-11-06T16:10:53.081Z,11.50
2022-11-06T16:13:25.140Z,11.10
2022-11-06T16:16:02.237Z,11.90
2022-11-06T16:18:41.108Z,12.20
2022-11-06T16:21:19.358Z,11.40
2022-11-06T16:24:03.742Z,12.60
2022-11-06T16:26:32.334Z,12.40
2022-11-06T16:29:02.408Z,12.80
2022-11-06T16:31:31.736Z,12.50
2022-11-06T16:34:04.526Z,14.10
2022-11-06T16:37:00.825Z,12.50
2022-11-06T16:39:51.320Z,12.40
2022-11-06T16:42:22.813Z,12.80
2022-11-06T16:45:00.531Z,12.90
2022-11-06T16:47:29.403Z,12.70
2022-11-06T16:49:58.843Z,12.70
2022-11-06T16:52:39.332Z,12.70
2022-11-06T16:55:16.676Z,13.10
2022-11-06T16:57:56.849Z,12.40
2022-11-06T17:00:31.222Z,12.40
2022-11-06T17:03:04.713Z,13.70
2022-11-06T17:05:37.132Z,13.40
2022-11-06T17:08:40.224Z,13.40
2022-11-06T17:11:21.897Z,13.20
2022-11-06T17:13:51.726Z,14.10
2022-11-06T17:16:27.225Z,13.80
2022-11-06T17:18:55.802Z,13.10
2022-11-06T17:21:25.857Z,13.20
2022-11-06T17:23:57.729Z,14.20
2022-11-06T17:26:33.401Z,14.10
2022-11-06T17:29:02.141Z,15.40
2022-11-06T17:31:30.933Z,13.90
2022-11-06T17:33:59.554Z,15.00
2022-11-06T17:36:30.660Z,13.50
2022-11-06T17:39:00.089Z,15.90
2022-11-06T17:41:31.326Z,16.50
2022-11-06T17:44:04.452Z,13.40
2022-11-06T17:46:36.717Z,15.20
2022-11-06T17:49:05.727Z,14.10
2022-11-06T17:51:53.005Z,14.50
2022-11-06T17:54:25.620Z,14.40
2022-11-06T17:56:56.964Z,14.00
2022-11-06T17:59:26.218Z,14.60
2022-11-06T18:01:56.191Z,14.10
2022-11-06T18:04:27.604Z,13.10
2022-11-06T18:06:56.730Z,14.40
2022-11-06T18:09:25.921Z,14.40
2022-11-06T18:11:55.609Z,15.50
2022-11-06T18:14:26.260Z,15.40
2022-11-06T18:16:54.848Z,13.50
2022-11-06T18:19:25.039Z,14.40
2022-11-06T18:21:55.371Z,14.30
2022-11-06T18:24:24.745Z,14.80
2022-11-06T18:26:53.874Z,13.80
2022-11-06T18:29:22.764Z,13.90
2022-11-06T18:31:51.445Z,13.70
2022-11-06T18:34:21.414Z,13.70
2022-11-06T18:36:51.174Z,14.50
2022-11-06T18:39:20.412Z,13.00
2022-11-06T18:41:49.238Z,15.30
2022-11-06T18:44:18.355Z,12.90
2022-11-06T18:46:47.820Z,12.80
2022-11-06T18:49:16.827Z,12.40
2022-11-06T18:51:46.028Z,12.50
2022-11-06T18:54:14.952Z,11.70
2022-11-06T18:56:43.815Z,12.20
2022-11-06T18:59:19.119Z,13.40
2022-11-06T19:01:48.398Z,12.30
2022-11-06T19:04:17.433Z,13.70
2022-11-06T19:06:46.130Z,12.30
2022-11-06T19:09:14.862Z,11.80
2022-11-06T19:11:43.467Z,13.10
2022-11-06T19:14:12.180Z,12.10
2022-11-06T19:16:41.094Z,11.50
2022-11-06T19:19:11.926Z,11.70
2022-11-06T19:21:46.168Z,13.00
2022-11-06T19:24:15.991Z,11.80
2022-11-06T19:26:44.615Z,13.30
2022-11-06T19:29:13.223Z,11.40
2022-11-06T19:31:41.978Z,10.80
2022-11-06T19:34:13.400Z,10.70
2022-11-06T19:36:41.988Z,10.70
2022-11-06T19:39:11.677Z,10.60
2022-11-06T19:41:40.366Z,10.90
2022-11-06T19:44:10.599Z,11.00
2022-11-06T19:46:39.563Z,10.60
2022-11-06T19:49:10.181Z,9.30
2022-11-06T19:51:41.157Z,10.20
2022-11-06T19:54:11.288Z,9.80
2022-11-06T19:57:27.578Z,10.00
2022-11-06T19:59:28.919Z,10.60
2022-11-06T20:01:58.016Z,9.10
2022-11-06T20:04:27.060Z,9.70
2022-11-06T20:06:55.680Z,10.10
2022-11-06T20:09:24.348Z,9.40
2022-11-06T20:11:52.997Z,9.70
2022-11-06T20:14:24.279Z,9.80
2022-11-06T20:16:53.322Z,8.90
2022-11-06T20:19:22.003Z,9.00
2022-11-06T20:21:50.655Z,9.50
2022-11-06T20:24:19.262Z,8.80
2022-11-06T20:26:47.843Z,8.20
2022-11-06T20:29:16.728Z,8.30
2022-11-06T20:31:45.414Z,8.00
2022-11-06T20:34:15.888Z,8.10
2022-11-06T20:36:44.529Z,7.40
2022-11-06T20:39:15.451Z,7.60
2022-11-06T20:41:44.214Z,7.70
2022-11-06T20:44:13.233Z,7.60
2022-11-06T20:46:41.799Z,7.10
2022-11-06T20:49:10.501Z,7.40
2022-11-06T20:52:11.637Z,8.20
2022-11-06T20:54:30.759Z,8.00
2022-11-06T20:57:00.245Z,7.30
2022-11-06T20:59:31.201Z,6.90
2022-11-06T21:02:18.393Z,7.20
2022-11-06T21:04:49.982Z,7.10
2022-11-06T21:07:18.570Z,7.40
2022-11-06T21:09:47.164Z,6.90
2022-11-06T21:12:15.792Z,7.30
2022-11-06T21:14:44.629Z,6.70
2022-11-06T21:17:15.140Z,6.80
2022-11-06T21:19:44.445Z,7.40
2022-11-06T21:22:14.552Z,6.50
2022-11-06T21:24:44.027Z,6.60
2022-11-06T21:27:12.782Z,6.50
2022-11-06T21:29:41.364Z,6.70
2022-11-06T21:32:09.969Z,7.20
2022-11-06T21:34:38.689Z,6.90
2022-11-06T21:37:07.251Z,7.40
2022-11-06T21:39:36.722Z,6.90
2022-11-06T21:42:06.146Z,7.00
2022-11-06T21:44:34.787Z,6.60
2022-11-06T21:47:03.384Z,6.90
2022-11-06T21:49:34.658Z,6.80
2022-11-06T21:52:28.968Z,6.60
2022-11-06T21:55:16.532Z,6.80
2022-11-06T21:57:45.164Z,7.10
2022-11-06T22:00:14.699Z,6.60
2022-11-06T22:02:43.826Z,7.10
2022-11-06T22:05:12.617Z,6.00
2022-11-06T22:07:41.285Z,6.60
2022-11-06T22:10:10.178Z,6.90
2022-11-06T22:12:38.794Z,7.40
2022-11-06T22:15:08.420Z,6.00
2022-11-06T22:17:37.116Z,6.50
2022-11-06T22:20:06.614Z,7.30
2022-11-06T22:22:35.189Z,6.50
2022-11-06T22:25:05.254Z,6.90
2022-11-06T22:27:38.158Z,6.60
2022-11-06T22:30:10.317Z,6.30
2022-11-06T22:32:38.929Z,6.20
2022-11-06T22:35:07.936Z,6.40
2022-11-06T22:37:36.585Z,6.20
2022-11-06T22:40:08.285Z,6.50
2022-11-06T22:42:36.893Z,6.50
2022-11-06T22:45:06.310Z,6.50
2022-11-06T22:47:35.059Z,6.40
2022-11-06T22:50:03.866Z,6.50
2022-11-06T22:52:32.470Z,7.00
2022-11-06T22:55:01.075Z,6.10
2022-11-06T22:57:29.694Z,6.60
2022-11-06T22:59:58.349Z,7.10
2022-11-06T23:02:27.135Z,8.70
2022-11-06T23:04:55.772Z,7.00
2022-11-06T23:07:24.388Z,7.50
2022-11-06T23:09:52.965Z,7.00
2022-11-06T23:12:21.571Z,8.00
2022-11-06T23:14:50.221Z,6.50
2022-11-06T23:17:20.282Z,7.00
2022-11-06T23:19:48.902Z,6.90
2022-11-06T23:22:36.218Z,6.90
2022-11-06T23:25:07.234Z,7.30
2022-11-06T23:27:37.236Z,7.30
2022-11-06T23:30:07.380Z,7.10
2022-11-06T23:32:37.643Z,7.00
2022-11-06T23:35:13.260Z,7.20
2022-11-06T23:37:43.631Z,6.70
2022-11-06T23:40:12.699Z,6.70
2022-11-06T23:42:43.388Z,6.90
2022-11-06T23:45:30.772Z,7.60
2022-11-06T23:48:02.132Z,7.10
2022-11-06T23:50:33.227Z,7.50
2022-11-06T23:53:01.914Z,7.10
2022-11-06T23:55:30.464Z,7.00
2022-11-06T23:57:59.811Z,7.30
